Billingshurst, United Kingdom
Current Conditions -  °F | °C
As of 2:20 AM on Friday 21 Nov 2014 (Local Time) from EGKK Reporting Station
Haze Haze  
Wind Chill: 38°   Ceiling: 1000
Heat Index: 43°   Visibility: 2.5mi
Dew Point: 43°   Wind: 8mph
Humidity: 100%   Direction: 80°E
Pressure: 30.15"   Gusts: NA
Location:  51.02°N, 0.45°W
Report Text: EGKK 210220Z 08007KT 4000 HZ BKN010 06/06 Q1021
Loading
Personal Weather Stations






























Interactive Weather Map New forecast layout! Learn more

10-Day Weather Forecast

Advertisements
Track Severe Weather on mobile